Paulistana II — 00 — position and weather

sailwx.info

Track history (hours):
 
Tides and Currents Weather Stations Pressure Air Temp Water Temp Dewpoint Dewpoint Depression Visibility Wind Speed Wind Dir Waves Ship Positions

Paulistana II

Last reported at 2014-Jul-22 19:33 UTC. Time now 2014-Jul-22 19:38 UTC.
Position N 38°55' E 117°57'.

Length 6 m.

Type: Pollution control. MMSI: 316014038.

Date/timePositionNaut miles runAvg speedWind from/ knotsBaromVisibWave heightAir tempDewpointWater temp
2014-Jul-22 19:33N 38°55' E 117°57'7315248427.0
2014-Jul-22 19:31N 29°33' W 095°02'743418418.2
2014-Jul-22 19:07N 31°60' E 120°48'433760.4
2014-Jul-22 18:33N 38°52' E 118°05'7311268552.9
2014-Jul-22 18:31N 29°33' W 095°02'7434159295.1
2014-Jul-22 18:29N 31°60' E 120°48'74347799.9
2014-Jul-22 17:31N 29°33' W 095°02'743426923.1
2014-Jul-22 17:15N 31°60' E 120°48'0 0.0
2014-Jul-22 16:33N 31°60' E 120°48'7434224887.3
2014-Jul-22 16:31N 29°33' W 095°02'74347652.7
2014-Jul-22 15:33N 31°60' E 120°48'7434257322.6
2014-Jul-22 15:31N 29°33' W 095°02'0 0.0
2014-Jul-22 14:31N 29°33' W 095°02'745064316.7
2014-Jul-22 14:24N 32°02' E 120°28'74508434.0
2014-Jul-22 13:31N 29°33' W 095°02'745730644.5
2014-Jul-22 13:17N 31°59' E 120°22'74579854.8
2014-Jul-22 12:31N 29°33' W 095°02'743497314.8
2014-Jul-22 12:27N 31°60' E 120°48'74348046.2
2014-Jul-22 11:31N 29°33' W 095°02'0 0.0
2014-Jul-22 10:31N 29°33' W 095°02'0 0.0
2014-Jul-22 09:31N 29°33' W 095°02'0 0.0
2014-Jul-22 08:31N 29°33' W 095°02'0 0.0
2014-Jul-22 07:31N 29°33' W 095°02'0 0.0
2014-Jul-22 06:31N 29°33' W 095°02'0 0.0
2014-Jul-22 05:31N 29°33' W 095°02'0 0.0
2014-Jul-22 04:31N 29°33' W 095°02'0 0.0
2014-Jul-22 03:31N 29°33' W 095°02'730916253.0
2014-Jul-22 03:04N 39°09' E 117°53'3 5.7
2014-Jul-22 02:33N 39°07' E 117°56'7308226786.9
2014-Jul-22 02:31N 29°33' W 095°02'0 0.0
2014-Jul-22 01:32N 29°33' W 095°02'71867435.7
2014-Jul-22 00:34N 37°54' E 121°20'7186213790.5
2014-Jul-22 00:32N 29°33' W 095°02'0 0.0
2014-Jul-21 23:32N 29°33' W 095°02'7458383543.6
2014-Jul-21 23:30N 31°60' E 120°20'2 2.3
2014-Jul-21 22:33N 32°00' E 120°23'7455372766.6
2014-Jul-21 22:32N 29°33' W 095°02'74527527.4
2014-Jul-21 21:32N 32°02' E 120°26'7452745210.7
2014-Jul-21 21:32N 29°33' W 095°02'7163310692.8
2014-Jul-21 21:30N 37°45' E 121°53'350369.8
2014-Jul-21 20:33N 32°02' E 120°28'35013985.0
2014-Jul-21 20:32N 37°43' E 122°04'71561515435.5
2014-Jul-21 20:32N 29°33' W 095°02'0 0.0
2014-Jul-21 20:18N 29°33' W 095°02'71551981275.3
2014-Jul-21 20:18N 37°42' E 122°06'3496013.4
2014-Jul-21 20:14N 32°02' E 120°29'349511.9
2014-Jul-21 19:33N 37°40' E 122°14'3493083.8
2014-Jul-21 19:27N 32°02' E 120°32'348393.0
2014-Jul-21 18:34N 37°38' E 122°25'9 8.5
2014-Jul-21 17:31N 37°35' E 122°35'236946.7
2014-Jul-21 17:16N 38°54' E 117°52'252130.9
2014-Jul-21 15:20N 37°24' E 122°52'249319.0
2014-Jul-21 14:33N 39°04' E 118°02'252584.5
2014-Jul-21 14:07N 37°14' E 122°51'252447.5
2014-Jul-21 13:33N 39°10' E 118°07'449361.2
2014-Jul-21 12:19N 31°60' E 120°48'0 0.1
2014-Jul-21 11:28N 31°60' E 120°48'0 0.0
2014-Jul-21 10:16N 31°60' E 120°48'452643.3
2014-Jul-21 09:33N 39°12' E 118°04'452371.4
2014-Jul-21 08:20N 31°60' E 120°48'4513510.4
2014-Jul-21 08:13N 39°11' E 118°04'0 0.1
2014-Jul-21 07:32N 39°11' E 118°04'45130662.2
2014-Jul-21 07:31N 31°60' E 120°48'450467.1
2014-Jul-21 06:33N 39°08' E 117°56'45012557.6
2014-Jul-21 06:31N 31°60' E 120°48'450446.4
2014-Jul-21 05:31N 39°06' E 117°51'4501111.9
2014-Jul-21 05:07N 31°60' E 120°48'449812.8
2014-Jul-21 04:33N 39°05' E 117°52'4964406.3
2014-Jul-21 04:27N 31°22' E 121°30'52285.6
2014-Jul-21 04:16N 31°60' E 120°48'449633.0
2014-Jul-21 03:33N 39°05' E 117°52'4491953.4
2014-Jul-21 03:19N 31°60' E 120°48'449568.7
2014-Jul-21 02:32N 39°05' E 117°52'0 0.4
2014-Jul-21 01:33N 39°05' E 117°52'51881715.7
2014-Jul-20 22:32N 48°34' W 123°01'5185519.5
2014-Jul-20 12:33N 39°07' E 117°54'1055.2
2014-Jul-20 12:22N 39°09' E 118°07'495123.6
2014-Jul-20 08:21N 31°21' E 121°27'3 3.1
2014-Jul-20 07:16N 31°23' E 121°30'490519.1
2014-Jul-20 06:20N 38°58' E 117°50'53458.2
2014-Jul-19 21:09N 30°57' E 122°33'6 9.3
2014-Jul-19 20:29N 30°52' E 122°28'8 8.4
2014-Jul-19 19:34N 30°49' E 122°20'1063738293496.2
2014-Jul-19 19:34N 26°57' W 080°05'1064010601.4
2014-Jul-19 18:33N 30°41' E 122°15'8 7.9
2014-Jul-19 17:33N 30°34' E 122°12'8 7.9
2014-Jul-19 16:31N 30°29' E 122°05'8 8.6
2014-Jul-19 15:33N 30°25' E 121°57'11 7.6
2014-Jul-19 14:05N 30°16' E 121°49'16 4.0
2014-Jul-19 10:06N 29°60' E 121°48'6 7.6
2014-Jul-19 09:15N 29°57' E 121°42'1 1.0
2014-Jul-19 08:21N 29°56' E 121°41'0 0.0
2014-Jul-19 07:29N 29°56' E 121°41'0 0.0
2014-Jul-19 06:28N 29°56' E 121°41'0 0.0
2014-Jul-19 05:10N 29°56' E 121°41'0 0.0
2014-Jul-19 04:04N 29°56' E 121°41'0 0.0
2014-Jul-19 03:04N 29°56' E 121°41'0 0.0
2014-Jul-19 01:28N 29°56' E 121°41'54735668.4
2014-Jul-19 00:30N 48°32' W 123°01'5473149268.4
2014-Jul-19 00:28N 29°56' E 121°41'580190.6
2014-Jul-18 21:26N 39°06' E 117°56'5809991.8
2014-Jul-18 21:22N 29°56' E 121°41'584720.3
2014-Jul-18 20:33N 39°09' E 117°53'5841190.6
2014-Jul-18 20:04N 29°56' E 121°41'0 0.0
2014-Jul-18 18:28N 29°56' E 121°41'0 0.0
2014-Jul-18 16:04N 29°56' E 121°41'0 0.0
2014-Jul-18 15:22N 29°56' E 121°41'0 0.0
2014-Jul-18 14:10N 29°56' E 121°41'13878.6
2014-Jul-18 12:25N 32°01' E 120°32'138112.5
2014-Jul-18 11:11N 29°56' E 121°41'0 0.0
2014-Jul-18 10:29N 29°56' E 121°41'1381063.0
2014-Jul-18 10:21N 32°01' E 120°32'13873.9
2014-Jul-18 08:29N 29°56' E 121°41'139509.0
2014-Jul-18 08:13N 32°01' E 120°31'4 6.2
2014-Jul-18 07:32N 32°02' E 120°26'4473133.0
2014-Jul-18 07:24N 39°11' E 117°51'1 1.3
2014-Jul-18 06:32N 39°10' E 117°52'44816462.2
2014-Jul-18 06:31N 31°58' E 120°20'1415438.8
2014-Jul-18 06:29N 29°56' E 121°41'580616.6
2014-Jul-18 05:33N 39°05' E 117°56'8801825.5
2014-Jul-18 05:04N 24°25' E 118°03'8791688.7
2014-Jul-18 04:33N 39°04' E 117°58'88029621.2
2014-Jul-18 04:31N 24°23' E 118°07'878909.9
2014-Jul-18 03:33N 39°01' E 117°58'1 0.9
2014-Jul-18 02:30N 39°02' E 117°58'576606.3
2014-Jul-18 01:33N 29°59' E 121°49'578416501.0
2014-Jul-18 01:33N 39°05' E 117°58'581584.9
2014-Jul-18 00:33N 29°58' E 121°57'58267559.0
2014-Jul-18 00:33N 39°05' E 117°57'587589.8
2014-Jul-17 23:33N 29°54' E 122°03'5895352.2
2014-Jul-17 23:27N 39°07' E 117°57'2 1.9
2014-Jul-17 22:32N 39°05' E 117°57'5877312.9
2014-Jul-17 22:27N 29°53' E 121°59'588655.4
2014-Jul-17 21:33N 39°06' E 117°57'588151118.5
2014-Jul-17 21:33N 29°53' E 121°59'588589.4
2014-Jul-17 20:33N 39°07' E 117°59'588423682.7
2014-Jul-17 20:33N 29°53' E 121°59'0 0.0
2014-Jul-17 19:33N 29°53' E 121°59'34577737.4
2014-Jul-17 19:33N 24°48' E 118°57'863258839.3
2014-Jul-17 19:33N 39°10' E 118°07'5152403239.1
2014-Jul-17 19:32N 49°18' W 122°53'54495530.3
2014-Jul-17 18:33N 29°53' E 121°59'33910698.1
2014-Jul-17 18:31N 24°53' E 119°02'583738844.7
2014-Jul-17 18:22N 49°18' W 122°54'0 0.0
2014-Jul-17 17:28N 49°18' W 122°54'544945510.0
2014-Jul-17 17:21N 29°53' E 121°59'0 0.0
2014-Jul-17 16:33N 29°53' E 121°59'0 0.0
2014-Jul-17 15:33N 29°53' E 121°59'0 0.0
2014-Jul-17 14:33N 29°53' E 121°59'0 0.0
2014-Jul-17 13:32N 29°53' E 121°59'0 0.0
2014-Jul-17 12:33N 29°53' E 121°59'0 0.0
2014-Jul-17 11:25N 29°53' E 121°59'0 0.0
2014-Jul-17 10:31N 29°53' E 121°59'0 0.0
2014-Jul-17 09:31N 29°53' E 121°59'0 0.0
2014-Jul-17 08:31N 29°53' E 121°59'153488.8
2014-Jul-17 08:12N 31°57' E 120°13'2 3.0
2014-Jul-17 07:33N 31°57' E 120°15'1524058.1
2014-Jul-17 07:31N 29°53' E 121°59'5899258.2
2014-Jul-17 07:27N 39°06' E 117°51'443492.4
2014-Jul-17 06:33N 31°59' E 120°20'44331275.1
2014-Jul-17 06:32N 39°06' E 117°51'5894807.6
2014-Jul-17 06:25N 29°53' E 121°59'151176.6
2014-Jul-17 05:34N 32°00' E 120°23'44366425.2
2014-Jul-17 05:33N 39°05' E 117°52'5892446.8
2014-Jul-17 05:19N 29°53' E 121°59'588781.5
2014-Jul-17 04:33N 39°05' E 117°52'442530057.5
2014-Jul-17 04:33N 32°02' E 120°27'442441.4
2014-Jul-17 03:33N 39°06' E 117°52'0 0.0
2014-Jul-17 02:33N 39°06' E 117°52'44519309.0
2014-Jul-17 02:32N 32°01' E 120°36'4 3.4
2014-Jul-17 01:26N 32°00' E 120°40'144489.7
2014-Jul-17 01:08N 29°53' E 121°59'1 2.3
2014-Jul-17 00:33N 29°54' E 122°01'143373.4
2014-Jul-17 00:11N 32°01' E 120°46'142229.1
2014-Jul-16 23:33N 29°55' E 122°02'1110.9
2014-Jul-16 22:32N 30°04' E 121°55'10 9.8
2014-Jul-16 21:33N 30°13' E 121°50'13363.7
2014-Jul-16 19:28N 31°56' E 120°13'13257.2
2014-Jul-16 17:09N 30°13' E 121°50'78126.4
2014-Jul-16 16:32N 31°29' E 121°27'69216.3
2014-Jul-16 16:13N 31°56' E 120°13'72109.3
2014-Jul-16 15:33N 31°26' E 121°30'4 3.7
2014-Jul-16 14:33N 31°22' E 121°30'613359.8
2014-Jul-16 14:32N 30°27' E 121°59'1010.2
2014-Jul-16 13:33N 30°32' E 122°09'545674.7
2014-Jul-16 13:33N 31°17' E 121°34'5050.3
2014-Jul-16 12:33N 30°41' E 122°14'491275.5
2014-Jul-16 12:31N 31°12' E 121°30'791432.3
2014-Jul-16 12:28N 31°56' E 120°13'126139.7
2014-Jul-16 11:33N 30°49' E 122°19'1242749.6
2014-Jul-16 11:31N 31°57' E 120°17'128133.3
2014-Jul-16 10:33N 30°53' E 122°27'125450804.4
2014-Jul-16 10:33N 31°60' E 120°22'6 5.6
2014-Jul-16 09:33N 32°02' E 120°28'5 5.3
2014-Jul-16 08:33N 32°01' E 120°34'44463.5
2014-Jul-16 01:33N 39°05' E 117°51'0 0.4
2014-Jul-16 00:33N 39°05' E 117°51'1 1.2
2014-Jul-15 23:33N 39°06' E 117°53'443204.2
2014-Jul-15 21:22N 32°00' E 120°22'5 6.4
2014-Jul-15 20:31N 32°02' E 120°28'1181079.8
2014-Jul-15 20:24N 32°52' E 122°35'52731701.9
2014-Jul-15 17:19N 49°18' W 122°53'539869160.3
2014-Jul-15 17:14N 31°17' E 121°34'4 5.5
2014-Jul-15 16:33N 31°20' E 121°33'3 3.5
2014-Jul-15 15:33N 31°23' E 121°30'3515938.8
2014-Jul-15 15:30N 25°45' E 119°39'353361.5
2014-Jul-15 14:31N 31°25' E 121°30'7 6.5
2014-Jul-15 13:30N 31°29' E 121°24'10736.1
2014-Jul-15 10:33N 29°49' E 122°05'6 6.1
2014-Jul-15 09:33N 29°55' E 122°05'11 9.7
2014-Jul-15 08:26N 30°02' E 121°56'8314.2
2014-Jul-15 02:32N 31°23' E 121°30'4 0.6
2014-Jul-14 19:24N 31°23' E 121°35'5 5.1
2014-Jul-14 18:23N 31°26' E 121°30'4 4.1
2014-Jul-14 17:27N 31°28' E 121°26'3242281.2
2014-Jul-14 17:19N 36°46' E 122°45'322400.2
2014-Jul-14 16:30N 31°31' E 121°23'1 8.8
2014-Jul-14 16:20N 31°31' E 121°22'3336314.9
2014-Jul-14 16:17N 36°57' E 122°46'810.3
2014-Jul-14 15:33N 37°04' E 122°46'34338569.8
2014-Jul-14 15:33N 31°27' E 121°29'4 3.6
2014-Jul-14 14:32N 31°25' E 121°32'0 0.0
2014-Jul-14 13:33N 31°25' E 121°32'0 0.0
2014-Jul-14 12:30N 31°25' E 121°32'374270.1
2014-Jul-14 11:07N 37°35' E 122°35'4 7.0
2014-Jul-14 10:29N 37°38' E 122°30'10 7.9
2014-Jul-14 09:16N 37°44' E 122°20'6 8.6
2014-Jul-14 08:33N 37°47' E 122°14'12 8.8
2014-Jul-14 07:10N 37°54' E 122°02'394146.9
2014-Jul-14 04:29N 31°22' E 121°28'46855.6
2014-Jul-13 20:04N 39°09' E 120°54'14078.8
2014-Jul-13 18:17N 39°06' E 117°53'15168.8
2014-Jul-13 16:05N 39°41' E 121°04'1539312.8
2014-Jul-13 16:04N 39°06' E 117°52'157272.1
2014-Jul-13 15:30N 39°46' E 121°09'157158.5
2014-Jul-13 14:30N 39°06' E 117°52'19164.8
2014-Jul-13 11:33N 40°18' E 121°42'19 9.1
2014-Jul-13 09:29N 40°31' E 121°59'5151294.2
2014-Jul-13 09:06N 32°01' E 120°31'520970.6
2014-Jul-13 08:33N 40°35' E 122°06'52010813.2
2014-Jul-13 08:31N 32°02' E 120°29'3 2.9
2014-Jul-13 07:32N 32°01' E 120°26'3 3.0
2014-Jul-13 06:33N 31°60' E 120°23'7333.0
2014-Jul-13 04:21N 31°15' E 121°30'61094750.8
2014-Jul-13 03:04N 33°37' W 117°55'22304383.0
2014-Jul-13 02:33N 41°22' W 072°05'9375347948.0
2014-Jul-13 02:32N 31°21' E 121°32'610428500.2
2014-Jul-13 02:19N 33°37' W 117°55'22302942.3
2014-Jul-13 01:33N 41°21' W 072°05'9373249951.2
2014-Jul-13 01:31N 31°22' E 121°30'1 1.5
2014-Jul-13 00:33N 31°24' E 121°31'9373261558.7
2014-Jul-13 00:30N 41°21' W 072°05'1 0.6
2014-Jul-12 23:33N 41°21' W 072°05'2231276896.9
2014-Jul-12 23:32N 33°37' W 117°54'6103665827.3
2014-Jul-12 23:32N 31°26' E 121°29'93689540.0
2014-Jul-12 22:33N 41°21' W 072°06'1 1.0
2014-Jul-12 21:34N 41°20' W 072°05'1 1.1
2014-Jul-12 20:33N 41°19' W 072°05'  
Track history (hours):
 
Tides and Currents Weather Stations Pressure Air Temp Water Temp Dewpoint Dewpoint Depression Visibility Wind Speed Wind Dir Waves Ship Positions

Paulistana II

Last reported at 2014-Jul-22 19:33 UTC. Time now 2014-Jul-22 19:38 UTC.
Position N 38°55' E 117°57'.

Length 6 m.

Type: Pollution control. MMSI: 316014038.

Date/timePositionNaut miles runAvg speedWind from/ knotsBaromVisibWave heightAir tempDewpointWater temp
2014-Jul-22 19:33N 38°55' E 117°57'7315248427.0
2014-Jul-22 19:31N 29°33' W 095°02'743418418.2
2014-Jul-22 19:07N 31°60' E 120°48'433760.4
2014-Jul-22 18:33N 38°52' E 118°05'7311268552.9
2014-Jul-22 18:31N 29°33' W 095°02'7434159295.1
2014-Jul-22 18:29N 31°60' E 120°48'74347799.9
2014-Jul-22 17:31N 29°33' W 095°02'743426923.1
2014-Jul-22 17:15N 31°60' E 120°48'0 0.0
2014-Jul-22 16:33N 31°60' E 120°48'7434224887.3
2014-Jul-22 16:31N 29°33' W 095°02'74347652.7
2014-Jul-22 15:33N 31°60' E 120°48'7434257322.6
2014-Jul-22 15:31N 29°33' W 095°02'0 0.0
2014-Jul-22 14:31N 29°33' W 095°02'745064316.7
2014-Jul-22 14:24N 32°02' E 120°28'74508434.0
2014-Jul-22 13:31N 29°33' W 095°02'745730644.5
2014-Jul-22 13:17N 31°59' E 120°22'74579854.8
2014-Jul-22 12:31N 29°33' W 095°02'743497314.8
2014-Jul-22 12:27N 31°60' E 120°48'74348046.2
2014-Jul-22 11:31N 29°33' W 095°02'0 0.0
2014-Jul-22 10:31N 29°33' W 095°02'0 0.0
2014-Jul-22 09:31N 29°33' W 095°02'0 0.0
2014-Jul-22 08:31N 29°33' W 095°02'0 0.0
2014-Jul-22 07:31N 29°33' W 095°02'0 0.0
2014-Jul-22 06:31N 29°33' W 095°02'0 0.0
2014-Jul-22 05:31N 29°33' W 095°02'0 0.0
2014-Jul-22 04:31N 29°33' W 095°02'0 0.0
2014-Jul-22 03:31N 29°33' W 095°02'730916253.0
2014-Jul-22 03:04N 39°09' E 117°53'3 5.7
2014-Jul-22 02:33N 39°07' E 117°56'7308226786.9
2014-Jul-22 02:31N 29°33' W 095°02'0 0.0
2014-Jul-22 01:32N 29°33' W 095°02'71867435.7
2014-Jul-22 00:34N 37°54' E 121°20'7186213790.5
2014-Jul-22 00:32N 29°33' W 095°02'0 0.0
2014-Jul-21 23:32N 29°33' W 095°02'7458383543.6
2014-Jul-21 23:30N 31°60' E 120°20'2 2.3
2014-Jul-21 22:33N 32°00' E 120°23'7455372766.6
2014-Jul-21 22:32N 29°33' W 095°02'74527527.4
2014-Jul-21 21:32N 32°02' E 120°26'7452745210.7
2014-Jul-21 21:32N 29°33' W 095°02'7163310692.8
2014-Jul-21 21:30N 37°45' E 121°53'350369.8
2014-Jul-21 20:33N 32°02' E 120°28'35013985.0
2014-Jul-21 20:32N 37°43' E 122°04'71561515435.5
2014-Jul-21 20:32N 29°33' W 095°02'0 0.0
2014-Jul-21 20:18N 29°33' W 095°02'71551981275.3
2014-Jul-21 20:18N 37°42' E 122°06'3496013.4
2014-Jul-21 20:14N 32°02' E 120°29'349511.9
2014-Jul-21 19:33N 37°40' E 122°14'3493083.8
2014-Jul-21 19:27N 32°02' E 120°32'348393.0
2014-Jul-21 18:34N 37°38' E 122°25'9 8.5
2014-Jul-21 17:31N 37°35' E 122°35'236946.7
2014-Jul-21 17:16N 38°54' E 117°52'252130.9
2014-Jul-21 15:20N 37°24' E 122°52'249319.0
2014-Jul-21 14:33N 39°04' E 118°02'252584.5
2014-Jul-21 14:07N 37°14' E 122°51'252447.5
2014-Jul-21 13:33N 39°10' E 118°07'449361.2
2014-Jul-21 12:19N 31°60' E 120°48'0 0.1
2014-Jul-21 11:28N 31°60' E 120°48'0 0.0
2014-Jul-21 10:16N 31°60' E 120°48'452643.3
2014-Jul-21 09:33N 39°12' E 118°04'452371.4
2014-Jul-21 08:20N 31°60' E 120°48'4513510.4
2014-Jul-21 08:13N 39°11' E 118°04'0 0.1
2014-Jul-21 07:32N 39°11' E 118°04'45130662.2
2014-Jul-21 07:31N 31°60' E 120°48'450467.1
2014-Jul-21 06:33N 39°08' E 117°56'45012557.6
2014-Jul-21 06:31N 31°60' E 120°48'450446.4
2014-Jul-21 05:31N 39°06' E 117°51'4501111.9
2014-Jul-21 05:07N 31°60' E 120°48'449812.8
2014-Jul-21 04:33N 39°05' E 117°52'4964406.3
2014-Jul-21 04:27N 31°22' E 121°30'52285.6
2014-Jul-21 04:16N 31°60' E 120°48'449633.0
2014-Jul-21 03:33N 39°05' E 117°52'4491953.4
2014-Jul-21 03:19N 31°60' E 120°48'449568.7
2014-Jul-21 02:32N 39°05' E 117°52'0 0.4
2014-Jul-21 01:33N 39°05' E 117°52'51881715.7
2014-Jul-20 22:32N 48°34' W 123°01'5185519.5
2014-Jul-20 12:33N 39°07' E 117°54'1055.2
2014-Jul-20 12:22N 39°09' E 118°07'495123.6
2014-Jul-20 08:21N 31°21' E 121°27'3 3.1
2014-Jul-20 07:16N 31°23' E 121°30'490519.1
2014-Jul-20 06:20N 38°58' E 117°50'53458.2
2014-Jul-19 21:09N 30°57' E 122°33'6 9.3
2014-Jul-19 20:29N 30°52' E 122°28'8 8.4
2014-Jul-19 19:34N 30°49' E 122°20'1063738293496.2
2014-Jul-19 19:34N 26°57' W 080°05'1064010601.4
2014-Jul-19 18:33N 30°41' E 122°15'8 7.9
2014-Jul-19 17:33N 30°34' E 122°12'8 7.9
2014-Jul-19 16:31N 30°29' E 122°05'8 8.6
2014-Jul-19 15:33N 30°25' E 121°57'11 7.6
2014-Jul-19 14:05N 30°16' E 121°49'16 4.0
2014-Jul-19 10:06N 29°60' E 121°48'6 7.6
2014-Jul-19 09:15N 29°57' E 121°42'1 1.0
2014-Jul-19 08:21N 29°56' E 121°41'0 0.0
2014-Jul-19 07:29N 29°56' E 121°41'0 0.0
2014-Jul-19 06:28N 29°56' E 121°41'0 0.0
2014-Jul-19 05:10N 29°56' E 121°41'0 0.0
2014-Jul-19 04:04N 29°56' E 121°41'0 0.0
2014-Jul-19 03:04N 29°56' E 121°41'0 0.0
2014-Jul-19 01:28N 29°56' E 121°41'54735668.4
2014-Jul-19 00:30N 48°32' W 123°01'5473149268.4
2014-Jul-19 00:28N 29°56' E 121°41'580190.6
2014-Jul-18 21:26N 39°06' E 117°56'5809991.8
2014-Jul-18 21:22N 29°56' E 121°41'584720.3
2014-Jul-18 20:33N 39°09' E 117°53'5841190.6
2014-Jul-18 20:04N 29°56' E 121°41'0 0.0
2014-Jul-18 18:28N 29°56' E 121°41'0 0.0
2014-Jul-18 16:04N 29°56' E 121°41'0 0.0
2014-Jul-18 15:22N 29°56' E 121°41'0 0.0
2014-Jul-18 14:10N 29°56' E 121°41'13878.6
2014-Jul-18 12:25N 32°01' E 120°32'138112.5
2014-Jul-18 11:11N 29°56' E 121°41'0 0.0
2014-Jul-18 10:29N 29°56' E 121°41'1381063.0
2014-Jul-18 10:21N 32°01' E 120°32'13873.9
2014-Jul-18 08:29N 29°56' E 121°41'139509.0
2014-Jul-18 08:13N 32°01' E 120°31'4 6.2
2014-Jul-18 07:32N 32°02' E 120°26'4473133.0
2014-Jul-18 07:24N 39°11' E 117°51'1 1.3
2014-Jul-18 06:32N 39°10' E 117°52'44816462.2
2014-Jul-18 06:31N 31°58' E 120°20'1415438.8
2014-Jul-18 06:29N 29°56' E 121°41'580616.6
2014-Jul-18 05:33N 39°05' E 117°56'8801825.5
2014-Jul-18 05:04N 24°25' E 118°03'8791688.7
2014-Jul-18 04:33N 39°04' E 117°58'88029621.2
2014-Jul-18 04:31N 24°23' E 118°07'878909.9
2014-Jul-18 03:33N 39°01' E 117°58'1 0.9
2014-Jul-18 02:30N 39°02' E 117°58'576606.3
2014-Jul-18 01:33N 29°59' E 121°49'578416501.0
2014-Jul-18 01:33N 39°05' E 117°58'581584.9
2014-Jul-18 00:33N 29°58' E 121°57'58267559.0
2014-Jul-18 00:33N 39°05' E 117°57'587589.8
2014-Jul-17 23:33N 29°54' E 122°03'5895352.2
2014-Jul-17 23:27N 39°07' E 117°57'2 1.9
2014-Jul-17 22:32N 39°05' E 117°57'5877312.9
2014-Jul-17 22:27N 29°53' E 121°59'588655.4
2014-Jul-17 21:33N 39°06' E 117°57'588151118.5
2014-Jul-17 21:33N 29°53' E 121°59'588589.4
2014-Jul-17 20:33N 39°07' E 117°59'588423682.7
2014-Jul-17 20:33N 29°53' E 121°59'0 0.0
2014-Jul-17 19:33N 29°53' E 121°59'34577737.4
2014-Jul-17 19:33N 24°48' E 118°57'863258839.3
2014-Jul-17 19:33N 39°10' E 118°07'5152403239.1
2014-Jul-17 19:32N 49°18' W 122°53'54495530.3
2014-Jul-17 18:33N 29°53' E 121°59'33910698.1
2014-Jul-17 18:31N 24°53' E 119°02'583738844.7
2014-Jul-17 18:22N 49°18' W 122°54'0 0.0
2014-Jul-17 17:28N 49°18' W 122°54'544945510.0
2014-Jul-17 17:21N 29°53' E 121°59'0 0.0
2014-Jul-17 16:33N 29°53' E 121°59'0 0.0
2014-Jul-17 15:33N 29°53' E 121°59'0 0.0
2014-Jul-17 14:33N 29°53' E 121°59'0 0.0
2014-Jul-17 13:32N 29°53' E 121°59'0 0.0
2014-Jul-17 12:33N 29°53' E 121°59'0 0.0
2014-Jul-17 11:25N 29°53' E 121°59'0 0.0
2014-Jul-17 10:31N 29°53' E 121°59'0 0.0
2014-Jul-17 09:31N 29°53' E 121°59'0 0.0
2014-Jul-17 08:31N 29°53' E 121°59'153488.8
2014-Jul-17 08:12N 31°57' E 120°13'2 3.0
2014-Jul-17 07:33N 31°57' E 120°15'1524058.1
2014-Jul-17 07:31N 29°53' E 121°59'5899258.2
2014-Jul-17 07:27N 39°06' E 117°51'443492.4
2014-Jul-17 06:33N 31°59' E 120°20'44331275.1
2014-Jul-17 06:32N 39°06' E 117°51'5894807.6
2014-Jul-17 06:25N 29°53' E 121°59'151176.6
2014-Jul-17 05:34N 32°00' E 120°23'44366425.2
2014-Jul-17 05:33N 39°05' E 117°52'5892446.8
2014-Jul-17 05:19N 29°53' E 121°59'588781.5
2014-Jul-17 04:33N 39°05' E 117°52'442530057.5
2014-Jul-17 04:33N 32°02' E 120°27'442441.4
2014-Jul-17 03:33N 39°06' E 117°52'0 0.0
2014-Jul-17 02:33N 39°06' E 117°52'44519309.0
2014-Jul-17 02:32N 32°01' E 120°36'4 3.4
2014-Jul-17 01:26N 32°00' E 120°40'144489.7
2014-Jul-17 01:08N 29°53' E 121°59'1 2.3
2014-Jul-17 00:33N 29°54' E 122°01'143373.4
2014-Jul-17 00:11N 32°01' E 120°46'142229.1
2014-Jul-16 23:33N 29°55' E 122°02'1110.9
2014-Jul-16 22:32N 30°04' E 121°55'10 9.8
2014-Jul-16 21:33N 30°13' E 121°50'13363.7
2014-Jul-16 19:28N 31°56' E 120°13'13257.2
2014-Jul-16 17:09N 30°13' E 121°50'78126.4
2014-Jul-16 16:32N 31°29' E 121°27'69216.3
2014-Jul-16 16:13N 31°56' E 120°13'72109.3
2014-Jul-16 15:33N 31°26' E 121°30'4 3.7
2014-Jul-16 14:33N 31°22' E 121°30'613359.8
2014-Jul-16 14:32N 30°27' E 121°59'1010.2
2014-Jul-16 13:33N 30°32' E 122°09'545674.7
2014-Jul-16 13:33N 31°17' E 121°34'5050.3
2014-Jul-16 12:33N 30°41' E 122°14'491275.5
2014-Jul-16 12:31N 31°12' E 121°30'791432.3
2014-Jul-16 12:28N 31°56' E 120°13'126139.7
2014-Jul-16 11:33N 30°49' E 122°19'1242749.6
2014-Jul-16 11:31N 31°57' E 120°17'128133.3
2014-Jul-16 10:33N 30°53' E 122°27'125450804.4
2014-Jul-16 10:33N 31°60' E 120°22'6 5.6
2014-Jul-16 09:33N 32°02' E 120°28'5 5.3
2014-Jul-16 08:33N 32°01' E 120°34'44463.5
2014-Jul-16 01:33N 39°05' E 117°51'0 0.4
2014-Jul-16 00:33N 39°05' E 117°51'1 1.2
2014-Jul-15 23:33N 39°06' E 117°53'443204.2
2014-Jul-15 21:22N 32°00' E 120°22'5 6.4
2014-Jul-15 20:31N 32°02' E 120°28'1181079.8
2014-Jul-15 20:24N 32°52' E 122°35'52731701.9
2014-Jul-15 17:19N 49°18' W 122°53'539869160.3
2014-Jul-15 17:14N 31°17' E 121°34'4 5.5
2014-Jul-15 16:33N 31°20' E 121°33'3 3.5
2014-Jul-15 15:33N 31°23' E 121°30'3515938.8
2014-Jul-15 15:30N 25°45' E 119°39'353361.5
2014-Jul-15 14:31N 31°25' E 121°30'7 6.5
2014-Jul-15 13:30N 31°29' E 121°24'10736.1
2014-Jul-15 10:33N 29°49' E 122°05'6 6.1
2014-Jul-15 09:33N 29°55' E 122°05'11 9.7
2014-Jul-15 08:26N 30°02' E 121°56'8314.2
2014-Jul-15 02:32N 31°23' E 121°30'4 0.6
2014-Jul-14 19:24N 31°23' E 121°35'5 5.1
2014-Jul-14 18:23N 31°26' E 121°30'4 4.1
2014-Jul-14 17:27N 31°28' E 121°26'3242281.2
2014-Jul-14 17:19N 36°46' E 122°45'322400.2
2014-Jul-14 16:30N 31°31' E 121°23'1 8.8
2014-Jul-14 16:20N 31°31' E 121°22'3336314.9
2014-Jul-14 16:17N 36°57' E 122°46'810.3
2014-Jul-14 15:33N 37°04' E 122°46'34338569.8
2014-Jul-14 15:33N 31°27' E 121°29'4 3.6
2014-Jul-14 14:32N 31°25' E 121°32'0 0.0
2014-Jul-14 13:33N 31°25' E 121°32'0 0.0
2014-Jul-14 12:30N 31°25' E 121°32'374270.1
2014-Jul-14 11:07N 37°35' E 122°35'4 7.0
2014-Jul-14 10:29N 37°38' E 122°30'10 7.9
2014-Jul-14 09:16N 37°44' E 122°20'6 8.6
2014-Jul-14 08:33N 37°47' E 122°14'12 8.8
2014-Jul-14 07:10N 37°54' E 122°02'394146.9
2014-Jul-14 04:29N 31°22' E 121°28'46855.6
2014-Jul-13 20:04N 39°09' E 120°54'14078.8
2014-Jul-13 18:17N 39°06' E 117°53'15168.8
2014-Jul-13 16:05N 39°41' E 121°04'1539312.8
2014-Jul-13 16:04N 39°06' E 117°52'157272.1
2014-Jul-13 15:30N 39°46' E 121°09'157158.5
2014-Jul-13 14:30N 39°06' E 117°52'19164.8
2014-Jul-13 11:33N 40°18' E 121°42'19 9.1
2014-Jul-13 09:29N 40°31' E 121°59'5151294.2
2014-Jul-13 09:06N 32°01' E 120°31'520970.6
2014-Jul-13 08:33N 40°35' E 122°06'52010813.2
2014-Jul-13 08:31N 32°02' E 120°29'3 2.9
2014-Jul-13 07:32N 32°01' E 120°26'3 3.0
2014-Jul-13 06:33N 31°60' E 120°23'7333.0
2014-Jul-13 04:21N 31°15' E 121°30'61094750.8
2014-Jul-13 03:04N 33°37' W 117°55'22304383.0
2014-Jul-13 02:33N 41°22' W 072°05'9375347948.0
2014-Jul-13 02:32N 31°21' E 121°32'610428500.2
2014-Jul-13 02:19N 33°37' W 117°55'22302942.3
2014-Jul-13 01:33N 41°21' W 072°05'9373249951.2
2014-Jul-13 01:31N 31°22' E 121°30'1 1.5
2014-Jul-13 00:33N 31°24' E 121°31'9373261558.7
2014-Jul-13 00:30N 41°21' W 072°05'1 0.6
2014-Jul-12 23:33N 41°21' W 072°05'2231276896.9
2014-Jul-12 23:32N 33°37' W 117°54'6103665827.3
2014-Jul-12 23:32N 31°26' E 121°29'93689540.0
2014-Jul-12 22:33N 41°21' W 072°06'1 1.0
2014-Jul-12 21:34N 41°20' W 072°05'1 1.1
2014-Jul-12 20:33N 41°19' W 072°05'  

Dump ship's entire track history